Wetterstation Vordersexau
Wetterdaten: Woche 24.12.12 - 30.12.12 (KW52)
Datum Zeit Temp. A. Feuchte A. Luftdruck Regen Wind Richtung Taupunkt Windchill Windben
24.12.2012 00:00 8,3 C 83 % 1013,4 hPa 0,0 l/m 3,2 km/h O-NO 5,6 C 8,3 C 1,8 km/h
24.12.2012 01:00 6,5 C 85 % 1012,8 hPa 0,0 l/m 0,0 km/h O-NO 4,2 C 6,5 C 0,0 km/h
24.12.2012 02:00 6,1 C 85 % 1012,7 hPa 0,0 l/m 0,0 km/h O-SO 3,8 C 6,1 C 0,0 km/h
24.12.2012 03:00 5,1 C 85 % 1012,4 hPa 0,0 l/m 0,0 km/h O-NO 2,8 C 5,1 C 0,0 km/h
24.12.2012 04:00 5,2 C 84 % 1011,6 hPa 0,0 l/m 0,0 km/h O 2,7 C 5,2 C 0,0 km/h
24.12.2012 05:00 5,2 C 86 % 1011,1 hPa 0,0 l/m 0,0 km/h S-SO 3,1 C 5,2 C 0,0 km/h
24.12.2012 06:00 5,1 C 86 % 1010,6 hPa 0,0 l/m 0,0 km/h S-SO 3,0 C 5,1 C 0,0 km/h
24.12.2012 07:00 4,1 C 86 % 1010,7 hPa 0,0 l/m 0,0 km/h S-SO 2,0 C 4,1 C 0,0 km/h
24.12.2012 08:00 3,5 C 86 % 1011,2 hPa 0,0 l/m 0,0 km/h NO 1,4 C 3,5 C 0,0 km/h
24.12.2012 09:00 6,6 C 86 % 1010,8 hPa 0,0 l/m 0,0 km/h O-SO 4,4 C 6,6 C 0,0 km/h
24.12.2012 10:00 11,6 C 73 % 1010,5 hPa 0,0 l/m 0,0 km/h S-SO 6,9 C 11,6 C 0,0 km/h
24.12.2012 11:00 18,7 C 55 % 1010,2 hPa 0,0 l/m 0,0 km/h SW 9,5 C 18,7 C 0,0 km/h
24.12.2012 12:00 19,8 C 43 % 1008,8 hPa 0,0 l/m 16,2 km/h S-SW 6,9 C 16,7 C 9,0 km/h
24.12.2012 13:00 19,4 C 43 % 1007,7 hPa 0,0 l/m 25,3 km/h W 6,5 C 14,5 C 14,0 km/h
24.12.2012 14:00 17,3 C 43 % 1007,6 hPa 0,0 l/m 4,5 km/h NW 4,6 C 17,3 C 2,5 km/h
24.12.2012 15:00 15,3 C 47 % 1007,5 hPa 0,0 l/m 5,2 km/h SO 4,1 C 15,3 C 2,9 km/h
24.12.2012 16:00 12,2 C 63 % 1007,1 hPa 0,0 l/m 0,0 km/h SO 5,4 C 12,2 C 0,0 km/h
24.12.2012 17:00 9,6 C 69 % 1007,4 hPa 0,0 l/m 0,0 km/h S-SO 4,2 C 9,6 C 0,0 km/h
24.12.2012 18:00 10,7 C 66 % 1007,3 hPa 0,0 l/m 0,0 km/h O-NO 4,6 C 10,7 C 0,0 km/h
24.12.2012 19:00 8,8 C 70 % 1007,4 hPa 0,0 l/m 0,6 km/h S-SW 3,6 C 8,8 C 0,4 km/h
24.12.2012 20:00 11,3 C 67 % 1007,5 hPa 0,0 l/m 1,3 km/h NO 5,4 C 11,3 C 0,7 km/h
24.12.2012 21:00 9,4 C 68 % 1007,3 hPa 0,0 l/m 8,4 km/h O-NO 3,8 C 7,9 C 4,7 km/h
24.12.2012 22:00 8,8 C 72 % 1006,7 hPa 0,0 l/m 1,9 km/h NO 4,0 C 8,8 C 1,1 km/h
24.12.2012 23:00 8,2 C 76 % 1006,3 hPa 0,0 l/m 3,2 km/h O-SO 4,2 C 8,2 C 1,8 km/h
25.12.2012 00:00 7,8 C 77 % 1006,2 hPa 0,0 l/m 0,0 km/h O-NO 4,0 C 7,8 C 0,0 km/h
25.12.2012 01:00 7,8 C 78 % 1005,4 hPa 0,0 l/m 1,9 km/h NO 4,2 C 7,8 C 1,1 km/h
25.12.2012 02:00 6,5 C 80 % 1004,7 hPa 0,0 l/m 0,0 km/h O-NO 3,3 C 6,5 C 0,0 km/h
25.12.2012 03:00 5,9 C 83 % 1004,2 hPa 0,0 l/m 0,0 km/h O-SO 3,2 C 5,9 C 0,0 km/h
25.12.2012 04:00 5,6 C 84 % 1004,9 hPa 0,0 l/m 0,0 km/h W-SW 3,1 C 5,6 C 0,0 km/h
25.12.2012 05:00 11,4 C 70 % 1005,4 hPa 0,0 l/m 22,7 km/h S 6,1 C 4,3 C 12,6 km/h
25.12.2012 06:00 10,7 C 71 % 1005,3 hPa 0,0 l/m 9,1 km/h SO 5,7 C 8,9 C 5,0 km/h
25.12.2012 07:00 8,5 C 74 % 1005,3 hPa 0,0 l/m 0,0 km/h S 4,1 C 8,5 C 0,0 km/h
25.12.2012 08:00 7,1 C 79 % 1005,4 hPa 0,0 l/m 0,0 km/h S 3,7 C 7,1 C 0,0 km/h
25.12.2012 09:00 7,3 C 82 % 1005,1 hPa 0,0 l/m 0,0 km/h O-NO 4,4 C 7,3 C 0,0 km/h
25.12.2012 10:00 11,9 C 70 % 1004,5 hPa 0,0 l/m 0,0 km/h S-SO 6,6 C 11,9 C 0,0 km/h
25.12.2012 11:00 12,2 C 74 % 1004,8 hPa 0,0 l/m 0,0 km/h W 7,7 C 12,2 C 0,0 km/h
25.12.2012 12:00 14,4 C 64 % 1004,8 hPa 0,0 l/m 0,0 km/h W-SW 7,7 C 14,4 C 0,0 km/h
25.12.2012 13:00 14,1 C 60 % 1004,9 hPa 0,0 l/m 16,8 km/h W-SW 6,5 C 9,5 C 9,4 km/h
25.12.2012 14:00 14,0 C 61 % 1005,3 hPa 0,0 l/m 18,8 km/h W 6,6 C 8,8 C 10,4 km/h
25.12.2012 15:00 13,1 C 68 % 1005,9 hPa 0,0 l/m 8,4 km/h N-NW 7,3 C 11,9 C 4,7 km/h
25.12.2012 16:00 11,0 C 74 % 1006,7 hPa 0,0 l/m 0,0 km/h S-SW 6,5 C 11,0 C 0,0 km/h
25.12.2012 17:00 8,9 C 81 % 1008,0 hPa 0,4 l/m 0,0 km/h SW 5,8 C 8,9 C 0,0 km/h
25.12.2012 18:00 8,3 C 84 % 1009,2 hPa 2,1 l/m 10,4 km/h W-SW 5,8 C 5,5 C 5,8 km/h
25.12.2012 19:00 8,0 C 84 % 1009,5 hPa 1,4 l/m 17,5 km/h W 5,5 C 1,6 C 9,7 km/h
25.12.2012 20:00 8,2 C 85 % 1009,7 hPa 0,0 l/m 21,4 km/h W-SW 5,8 C 0,5 C 11,9 km/h
25.12.2012 21:00 8,6 C 80 % 1009,7 hPa 0,0 l/m 20,7 km/h SW 5,3 C 1,2 C 11,5 km/h
25.12.2012 22:00 8,9 C 77 % 1010,0 hPa 0,0 l/m 32,4 km/h SW 5,1 C -1,4 C 18,0 km/h
25.12.2012 23:00 9,1 C 77 % 1010,3 hPa 0,0 l/m 24,0 km/h W-SW 5,3 C 0,9 C 13,3 km/h
26.12.2012 00:00 9,2 C 79 % 1010,7 hPa 0,0 l/m 20,1 km/h W-SW 5,8 C 2,2 C 11,2 km/h
26.12.2012 01:00 9,2 C 79 % 1010,5 hPa 0,0 l/m 21,4 km/h W 5,8 C 1,8 C 11,9 km/h
26.12.2012 02:00 8,9 C 79 % 1010,6 hPa 0,0 l/m 19,4 km/h SW 5,5 C 2,1 C 10,8 km/h
26.12.2012 03:00 8,6 C 80 % 1011,2 hPa 0,0 l/m 25,3 km/h W 5,3 C -0,1 C 14,0 km/h
26.12.2012 04:00 8,6 C 79 % 1010,9 hPa 0,0 l/m 21,4 km/h W 5,2 C 1,0 C 11,9 km/h
26.12.2012 05:00 8,7 C 80 % 1010,8 hPa 0,0 l/m 22,7 km/h W 5,4 C 0,7 C 12,6 km/h
26.12.2012 06:00 8,7 C 79 % 1010,9 hPa 0,0 l/m 12,3 km/h W 5,3 C 4,9 C 6,8 km/h
26.12.2012 07:00 8,8 C 79 % 1011,5 hPa 0,0 l/m 16,2 km/h W-NW 5,4 C 3,2 C 9,0 km/h
26.12.2012 08:00 8,3 C 81 % 1012,1 hPa 0,0 l/m 11,7 km/h W-NW 5,2 C 4,7 C 6,5 km/h
26.12.2012 09:00 7,8 C 81 % 1012,9 hPa 0,0 l/m 13,0 km/h W-SW 4,7 C 3,4 C 7,2 km/h
26.12.2012 10:00 8,9 C 78 % 1014,7 hPa 0,0 l/m 3,9 km/h W 5,3 C 8,9 C 2,2 km/h
26.12.2012 11:00 10,6 C 72 % 1015,0 hPa 0,0 l/m 20,7 km/h W 5,8 C 3,8 C 11,5 km/h
26.12.2012 12:00 9,8 C 70 % 1015,4 hPa 0,0 l/m 14,9 km/h SW 4,6 C 4,9 C 8,3 km/h
26.12.2012 13:00 9,1 C 73 % 1015,8 hPa 0,0 l/m 38,2 km/h NW 4,5 C -2,2 C 21,2 km/h
26.12.2012 14:00 9,1 C 73 % 1015,9 hPa 0,0 l/m 26,6 km/h SW 4,5 C 0,2 C 14,8 km/h
26.12.2012 15:00 8,8 C 74 % 1016,0 hPa 0,0 l/m 20,1 km/h W-NW 4,4 C 1,7 C 11,2 km/h
26.12.2012 16:00 8,3 C 76 % 1016,3 hPa 0,0 l/m 14,3 km/h W 4,3 C 3,4 C 7,9 km/h
26.12.2012 17:00 7,8 C 76 % 1016,3 hPa 0,0 l/m 2,6 km/h W 3,8 C 7,8 C 1,4 km/h
26.12.2012 18:00 7,6 C 78 % 1016,2 hPa 0,0 l/m 24,0 km/h W-NW 4,0 C -1,1 C 13,3 km/h
26.12.2012 19:00 8,1 C 76 % 1016,7 hPa 0,0 l/m 25,3 km/h SW 4,1 C -0,8 C 14,0 km/h
26.12.2012 20:00 8,1 C 75 % 1016,3 hPa 0,0 l/m 16,2 km/h W 3,9 C 2,3 C 9,0 km/h
26.12.2012 21:00 7,8 C 76 % 1016,6 hPa 0,0 l/m 14,3 km/h W 3,8 C 2,8 C 7,9 km/h
26.12.2012 22:00 8,2 C 73 % 1015,8 hPa 0,0 l/m 34,3 km/h W-SW 3,7 C -2,8 C 19,1 km/h
26.12.2012 23:00 8,2 C 72 % 1015,5 hPa 0,0 l/m 27,9 km/h W-NW 3,5 C -1,4 C 15,5 km/h
27.12.2012 00:00 8,3 C 72 % 1015,3 hPa 0,0 l/m 25,3 km/h W-SW 3,6 C -0,6 C 14,0 km/h
27.12.2012 01:00 9,6 C 67 % 1014,1 hPa 0,0 l/m 25,3 km/h W 3,8 C 1,2 C 14,0 km/h
27.12.2012 02:00 9,5 C 68 % 1013,4 hPa 0,0 l/m 51,2 km/h W 3,9 C -3,2 C 28,4 km/h
27.12.2012 03:00 9,3 C 69 % 1013,0 hPa 0,0 l/m 24,0 km/h W-NW 3,9 C 1,2 C 13,3 km/h
27.12.2012 04:00 9,4 C 71 % 1012,4 hPa 0,0 l/m 18,8 km/h W 4,4 C 2,9 C 10,4 km/h
27.12.2012 05:00 9,3 C 73 % 1012,2 hPa 0,0 l/m 20,7 km/h W 4,7 C 2,2 C 11,5 km/h
27.12.2012 06:00 9,3 C 74 % 1012,0 hPa 0,0 l/m 1,3 km/h W-NW 4,9 C 9,3 C 0,7 km/h
27.12.2012 07:00 9,2 C 78 % 1011,2 hPa 0,0 l/m 22,7 km/h W 5,6 C 1,4 C 12,6 km/h
27.12.2012 08:00 9,3 C 79 % 1010,7 hPa 0,0 l/m 20,7 km/h W 5,8 C 2,2 C 11,5 km/h
27.12.2012 09:00 8,5 C 83 % 1010,0 hPa 0,0 l/m 20,1 km/h W 5,8 C 1,3 C 11,2 km/h
27.12.2012 10:00 9,1 C 80 % 1009,6 hPa 0,4 l/m 44,7 km/h W-SW 5,8 C -3,1 C 24,8 km/h
27.12.2012 11:00 8,6 C 84 % 1009,2 hPa 0,0 l/m 18,1 km/h W-NW 6,1 C 2,2 C 10,1 km/h
27.12.2012 12:00 8,0 C 85 % 1008,1 hPa 0,0 l/m 18,1 km/h W 5,6 C 1,4 C 10,1 km/h
27.12.2012 13:00 8,6 C 85 % 1006,6 hPa 0,7 l/m 15,6 km/h W-NW 6,2 C 3,2 C 8,6 km/h
27.12.2012 14:00 10,1 C 84 % 1006,2 hPa 0,0 l/m 29,2 km/h W 7,5 C 1,0 C 16,2 km/h
27.12.2012 15:00 9,9 C 83 % 1005,6 hPa 0,0 l/m 24,6 km/h W 7,2 C 1,8 C 13,7 km/h
27.12.2012 16:00 9,8 C 80 % 1005,1 hPa 0,0 l/m 20,1 km/h W-NW 6,5 C 3,0 C 11,2 km/h
27.12.2012 17:00 7,8 C 84 % 1006,1 hPa 2,1 l/m 16,2 km/h W 5,3 C 1,9 C 9,0 km/h
27.12.2012 18:00 7,3 C 84 % 1009,0 hPa 2,1 l/m 10,4 km/h W-SW 4,8 C 4,4 C 5,8 km/h
27.12.2012 19:00 7,5 C 80 % 1010,2 hPa 0,0 l/m 21,4 km/h W 4,3 C -0,4 C 11,9 km/h
27.12.2012 20:00 6,9 C 84 % 1011,2 hPa 0,0 l/m 25,3 km/h W 4,4 C -2,5 C 14,0 km/h
27.12.2012 21:00 7,6 C 80 % 1012,2 hPa 0,0 l/m 21,4 km/h W 4,4 C -0,3 C 11,9 km/h
27.12.2012 22:00 7,3 C 83 % 1013,1 hPa 0,0 l/m 25,3 km/h W 4,6 C -1,9 C 14,0 km/h
27.12.2012 23:00 7,0 C 85 % 1014,4 hPa 0,0 l/m 33,7 km/h W 4,7 C -4,4 C 18,7 km/h
28.12.2012 00:00 7,0 C 85 % 1015,8 hPa 0,0 l/m 20,1 km/h W 4,7 C -0,6 C 11,2 km/h
28.12.2012 01:00 6,4 C 85 % 1017,5 hPa 0,4 l/m 12,3 km/h N-NW 4,1 C 2,2 C 6,8 km/h
28.12.2012 02:00 5,8 C 85 % 1019,4 hPa 0,4 l/m 3,2 km/h NW 3,5 C 5,8 C 1,8 km/h
28.12.2012 03:00 5,6 C 85 % 1020,9 hPa 1,1 l/m 13,0 km/h NW 3,3 C 0,9 C 7,2 km/h
28.12.2012 04:00 6,3 C 84 % 1022,3 hPa 0,0 l/m 5,8 km/h W 3,8 C 6,3 C 3,2 km/h
28.12.2012 05:00 6,3 C 82 % 1023,1 hPa 0,0 l/m 1,9 km/h W 3,5 C 6,3 C 1,1 km/h
28.12.2012 06:00 6,1 C 83 % 1023,5 hPa 0,0 l/m 9,7 km/h W-NW 3,4 C 3,5 C 5,4 km/h
28.12.2012 07:00 5,8 C 84 % 1024,2 hPa 0,0 l/m 9,7 km/h W 3,3 C 3,2 C 5,4 km/h
28.12.2012 08:00 5,6 C 84 % 1024,9 hPa 0,0 l/m 0,0 km/h NW 3,1 C 5,6 C 0,0 km/h
28.12.2012 09:00 5,5 C 84 % 1025,9 hPa 0,0 l/m 0,0 km/h S 3,0 C 5,5 C 0,0 km/h
28.12.2012 10:00 6,3 C 84 % 1027,0 hPa 0,0 l/m 7,8 km/h W 3,8 C 5,1 C 4,3 km/h
28.12.2012 11:00 7,5 C 82 % 1027,3 hPa 0,0 l/m 9,7 km/h W 4,6 C 5,0 C 5,4 km/h
28.12.2012 12:00 8,4 C 78 % 1027,2 hPa 0,0 l/m 7,8 km/h S-SW 4,8 C 7,3 C 4,3 km/h
28.12.2012 13:00 8,5 C 78 % 1027,1 hPa 0,0 l/m 21,4 km/h SW 4,9 C 0,9 C 11,9 km/h
28.12.2012 14:00 8,6 C 76 % 1027,0 hPa 0,0 l/m 16,8 km/h W-SW 4,6 C 2,7 C 9,4 km/h
28.12.2012 15:00 8,1 C 76 % 1026,7 hPa 0,0 l/m 21,4 km/h W-SW 4,1 C 0,4 C 11,9 km/h
28.12.2012 16:00 7,7 C 76 % 1026,8 hPa 0,0 l/m 0,0 km/h S 3,7 C 7,7 C 0,0 km/h
28.12.2012 17:00 7,0 C 79 % 1026,4 hPa 0,0 l/m 1,3 km/h S-SO 3,6 C 7,0 C 0,7 km/h
28.12.2012 18:00 7,0 C 79 % 1026,1 hPa 0,0 l/m 0,0 km/h O-NO 3,6 C 7,0 C 0,0 km/h
28.12.2012 19:00 6,5 C 82 % 1025,9 hPa 0,0 l/m 0,0 km/h O-NO 3,7 C 6,5 C 0,0 km/h
28.12.2012 20:00 6,4 C 83 % 1025,9 hPa 0,0 l/m 0,0 km/h N 3,7 C 6,4 C 0,0 km/h
Min-Datum _ 24.12.12 24.12.12 25.12.12 - 24.12.12 - 24.12.12 27.12.12 24.12.12
_ Min-Zeit 08:19 12:19 03:19 - 01:19 - 08:19 23:19 01:19
Minimum _ 3,5 C 43 % 1004,2 hPa - 0,0 km/h - 1,4 C -4,4 C 0,0 km/h
Max-Datum _ 24.12.12 24.12.12 28.12.12 25.12.12 27.12.12 - 24.12.12 24.12.12 27.12.12
_ Max-Zeit 12:19 05:19 11:19 18:19 02:19 - 11:19 11:19 02:19
Maximum _ 19,8 C 86 % 1027,3 hPa 2,1 l/m 51,2 km/h
W
- 9,5 C 18,7 C 28,4 km/h
W
Durchschnitt _ 8,7 C 77 % 1012,6 hPa #11,0 l/m 12,5 km/h W 4,7 C 4,8 C 6,9 km/h
www.sexauwetter.de